Time;durP1;ratioP1;P1;durP2;ratioP2;P2;SDS_P1;SDS_P2;PMS_P1;PMS_P2;Temp;Humidity;BMP_temperature;BMP_pressure;BME280_temperature;BME280_humidity;BME280_pressure;Samples;Min_cycle;Max_cycle;Signal;HPM_P1;HPM_P2
2022/03/28 00:02:17;;;;;;;32.60;14.50;;;;;;;0.50;51.91;99395.61;105825;1281;137774;-73
2022/03/28 00:04:57;;;;;;;35.50;14.40;;;;;;;0.42;52.14;99390.90;105707;1281;24824;-73
2022/03/28 00:07:24;;;;;;;33.10;13.10;;;;;;;0.32;52.45;99391.77;105555;1280;137967;-73
2022/03/28 00:10:05;;;;;;;29.90;12.80;;;;;;;0.20;53.16;99392.77;105792;1277;31023;-73
2022/03/28 00:12:33;;;;;;;34.20;14.30;;;;;;;0.12;53.47;99385.15;105733;1281;22586;-73
2022/03/28 00:15:14;;;;;;;31.60;13.20;;;;;;;0.05;53.44;99381.81;105758;1278;137529;-73
2022/03/28 00:17:41;;;;;;;32.20;12.40;;;;;;;-0.00;53.44;99381.95;105640;1280;22566;-73
2022/03/28 00:20:23;;;;;;;30.60;12.90;;;;;;;-0.05;52.73;99378.65;105853;1281;137849;-73
2022/03/28 00:22:50;;;;;;;32.50;13.40;;;;;;;-0.07;52.66;99379.76;105695;1281;25254;-73
2022/03/28 00:25:31;;;;;;;32.40;12.80;;;;;;;-0.09;53.15;99383.90;105693;1281;138383;-73
2022/03/28 00:27:58;;;;;;;30.90;14.60;;;;;;;-0.14;53.62;99384.23;105758;1281;24211;-73
2022/03/28 00:30:40;;;;;;;35.20;14.30;;;;;;;-0.18;53.51;99382.34;105740;1281;30409;-73
2022/03/28 00:33:21;;;;;;;31.30;13.80;;;;;;;-0.23;53.44;99373.16;105655;1283;139230;-73
2022/03/28 00:36:03;;;;;;;29.90;13.60;;;;;;;-0.25;53.35;99365.66;105657;1281;22548;-73
2022/03/28 00:38:44;;;;;;;33.70;13.70;;;;;;;-0.25;53.53;99357.98;105700;1278;137703;-73
2022/03/28 00:41:12;;;;;;;35.40;14.70;;;;;;;-0.26;53.50;99358.59;105775;1282;25266;-73
2022/03/28 00:43:56;;;;;;;32.60;13.80;;;;;;;-0.26;53.28;99358.31;105706;1281;137866;-73
2022/03/28 00:46:23;;;;;;;31.30;14.10;;;;;;;-0.27;53.23;99361.91;105792;1280;22592;-73
2022/03/28 00:49:04;;;;;;;30.70;12.70;;;;;;;-0.28;53.64;99357.98;105781;1281;24437;-73
2022/03/28 00:51:32;;;;;;;33.40;13.30;;;;;;;-0.30;53.53;99351.73;105719;1279;138166;-73
2022/03/28 00:54:13;;;;;;;28.90;11.20;;;;;;;-0.29;53.46;99347.48;105807;1281;22714;-73
2022/03/28 00:56:42;;;;;;;27.20;10.80;;;;;;;-0.27;53.52;99350.67;105686;1282;137807;-72
2022/03/28 00:59:11;;;;;;;22.90;9.80;;;;;;;-0.26;53.65;99346.67;105969;1278;24242;-73
2022/03/28 01:01:52;;;;;;;27.90;10.80;;;;;;;-0.24;53.22;99346.25;105628;1280;137849;-73
2022/03/28 01:04:19;;;;;;;25.20;11.00;;;;;;;-0.22;53.48;99344.27;105898;1281;25315;-73
2022/03/28 01:06:46;;;;;;;33.40;12.00;;;;;;;-0.21;53.77;99345.81;105765;1281;22537;-73
2022/03/28 01:09:13;;;;;;;27.30;11.20;;;;;;;-0.23;53.95;99343.02;105963;1281;137856;-73
2022/03/28 01:11:54;;;;;;;38.30;13.90;;;;;;;-0.27;54.24;99336.85;105643;1281;30531;-73
2022/03/28 01:14:37;;;;;;;32.40;13.70;;;;;;;-0.32;54.39;99335.67;105622;1281;137623;-73
2022/03/28 01:20:17;;;;;;;30.70;12.70;;;;;;;-0.41;54.77;99322.31;105610;1280;137850;-73
2022/03/28 01:22:58;;;;;;;32.00;13.20;;;;;;;-0.44;54.66;99319.58;105797;1281;22550;-73
2022/03/28 01:25:39;;;;;;;30.60;11.70;;;;;;;-0.47;54.65;99320.38;105694;1280;138374;-73
2022/03/28 01:28:06;;;;;;;33.80;13.80;;;;;;;-0.48;54.54;99314.31;105803;1281;22863;-73
2022/03/28 01:30:33;;;;;;;29.90;12.90;;;;;;;-0.50;54.57;99308.72;105946;1281;22565;-73
2022/03/28 01:33:15;;;;;;;37.20;15.50;;;;;;;-0.52;54.57;99304.83;105767;1278;137857;-73
2022/03/28 01:35:44;;;;;;;38.00;15.90;;;;;;;-0.53;54.46;99302.80;105820;1278;24280;-73
2022/03/28 01:38:25;;;;;;;35.80;13.80;;;;;;;-0.54;54.57;99299.85;105658;1281;137669;-73
2022/03/28 01:41:06;;;;;;;32.10;13.60;;;;;;;-0.55;54.60;99291.22;105755;1278;22569;-73
2022/03/28 01:43:33;;;;;;;36.90;14.70;;;;;;;-0.56;54.48;99288.34;105715;1281;139004;-73
2022/03/28 01:46:00;;;;;;;37.30;16.20;;;;;;;-0.55;54.41;99288.06;105775;1280;22563;-74
2022/03/28 01:48:41;;;;;;;39.50;16.80;;;;;;;-0.55;54.41;99282.52;105907;1281;22541;-74
2022/03/28 01:51:22;;;;;;;34.50;16.00;;;;;;;-0.55;54.60;99279.00;105809;1278;137739;-73
2022/03/28 01:53:49;;;;;;;34.60;13.50;;;;;;;-0.56;54.34;99280.47;105895;1281;22548;-73
2022/03/28 01:56:16;;;;;;;37.60;14.30;;;;;;;-0.55;54.51;99273.79;105688;1281;137839;-73
2022/03/28 01:58:43;;;;;;;38.20;14.80;;;;;;;-0.54;54.20;99273.52;105801;1281;24296;-73
2022/03/28 02:01:23;;;;;;;31.50;13.70;;;;;;;-0.53;54.27;99276.79;105726;1281;138279;-73
2022/03/28 02:04:05;;;;;;;32.80;12.90;;;;;;;-0.53;54.01;99278.02;105774;1280;25259;-73
2022/03/28 02:06:46;;;;;;;31.90;12.00;;;;;;;-0.53;54.18;99279.10;105898;1279;22570;-73
2022/03/28 02:09:27;;;;;;;28.20;12.50;;;;;;;-0.53;54.05;99271.49;105747;1278;138124;-73
2022/03/28 02:11:54;;;;;;;33.90;12.90;;;;;;;-0.54;53.74;99269.92;105764;1278;25205;-73
2022/03/28 02:14:21;;;;;;;31.80;12.40;;;;;;;-0.54;53.85;99267.58;105651;1281;137818;-72
2022/03/28 02:17:03;;;;;;;27.80;11.90;;;;;;;-0.54;53.68;99269.73;105837;1281;25299;-72
2022/03/28 02:19:44;;;;;;;30.00;12.30;;;;;;;-0.53;53.50;99264.45;105780;1278;137913;-72
2022/03/28 02:22:25;;;;;;;28.80;11.50;;;;;;;-0.52;53.69;99264.23;105752;1281;22547;-72
2022/03/28 02:25:07;;;;;;;30.50;12.70;;;;;;;-0.52;53.73;99263.82;105881;1279;22712;-73
2022/03/28 02:27:48;;;;;;;34.10;13.10;;;;;;;-0.52;54.07;99265.48;105785;1279;138958;-73
2022/03/28 02:30:15;;;;;;;33.60;14.10;;;;;;;-0.54;54.82;99266.38;105854;1277;24384;-72
2022/03/28 02:32:57;;;;;;;34.60;13.30;;;;;;;-0.59;55.96;99260.95;105669;1278;137663;-73
2022/03/28 02:35:25;;;;;;;29.90;12.90;;;;;;;-0.66;56.28;99258.64;105871;1278;24788;-73
2022/03/28 02:38:05;;;;;;;31.00;13.00;;;;;;;-0.75;56.59;99257.59;105706;1278;137861;-73
2022/03/28 02:40:33;;;;;;;31.00;13.20;;;;;;;-0.84;56.99;99255.56;105857;1277;22577;-73
2022/03/28 02:43:02;;;;;;;29.90;13.00;;;;;;;-0.90;56.92;99253.34;105912;1280;23920;-73
2022/03/28 02:45:43;;;;;;;26.60;11.70;;;;;;;-0.97;57.20;99251.49;105693;1279;137583;-73
2022/03/28 02:48:24;;;;;;;28.20;12.30;;;;;;;-1.01;57.33;99247.58;105896;1279;25437;-73
2022/03/28 02:51:05;;;;;;;25.50;12.00;;;;;;;-1.02;57.21;99245.12;105678;1279;137945;-73
2022/03/28 02:53:46;;;;;;;26.40;12.80;;;;;;;-1.04;57.30;99242.04;106008;1279;33047;-72
2022/03/28 02:56:27;;;;;;;32.50;13.20;;;;;;;-1.05;57.42;99236.61;105577;1279;138342;-72
2022/03/28 02:59:08;;;;;;;33.50;13.90;;;;;;;-1.06;57.42;99235.83;105814;1279;22576;-73
2022/03/28 03:01:50;;;;;;;31.70;13.70;;;;;;;-1.06;57.32;99236.89;105952;1278;137933;-73
2022/03/28 03:04:32;;;;;;;35.10;14.60;;;;;;;-1.05;57.34;99230.00;105672;1277;26632;-73
2022/03/28 03:07:12;;;;;;;31.60;12.40;;;;;;;-1.04;57.36;99235.42;105881;1278;23915;-73
2022/03/28 03:09:53;;;;;;;33.20;14.40;;;;;;;-1.03;57.13;99230.73;105908;1278;137865;-74
2022/03/28 03:12:34;;;;;;;34.80;14.40;;;;;;;-1.02;56.99;99228.13;105724;1279;22547;-74
2022/03/28 03:15:01;;;;;;;37.30;15.10;;;;;;;-1.00;57.05;99228.45;105600;1279;137808;-74
2022/03/28 03:17:42;;;;;;;32.10;13.30;;;;;;;-0.97;57.00;99227.41;105732;1279;22567;-74
2022/03/28 03:20:23;;;;;;;31.10;13.90;;;;;;;-0.92;56.91;99226.11;105609;1279;137975;-74
2022/03/28 03:23:04;;;;;;;30.40;12.50;;;;;;;-0.87;56.67;99227.53;105776;1280;22728;-75
2022/03/28 03:25:44;;;;;;;30.40;12.90;;;;;;;-0.84;56.50;99227.05;105624;1278;138009;-75
2022/03/28 03:28:11;;;;;;;30.80;12.10;;;;;;;-0.82;56.54;99228.41;105774;1278;23185;-75
2022/03/28 03:30:52;;;;;;;29.20;12.90;;;;;;;-0.80;56.46;99228.27;105728;1280;23952;-75
2022/03/28 03:33:33;;;;;;;27.80;11.80;;;;;;;-0.79;56.45;99223.56;105720;1279;138406;-75
2022/03/28 03:36:14;;;;;;;32.10;13.40;;;;;;;-0.79;56.43;99223.19;105826;1279;24377;-75
2022/03/28 03:38:55;;;;;;;37.40;14.70;;;;;;;-0.81;56.49;99217.30;105743;1279;137839;-75
2022/03/28 03:41:36;;;;;;;39.40;14.80;;;;;;;-0.82;56.23;99217.45;105757;1279;22858;-75
2022/03/28 03:44:17;;;;;;;36.20;15.50;;;;;;;-0.82;56.36;99216.55;105677;1278;137814;-75
2022/03/28 03:46:44;;;;;;;43.00;15.70;;;;;;;-0.84;56.44;99214.81;105851;1279;22582;-75
2022/03/28 03:49:25;;;;;;;41.00;15.70;;;;;;;-0.85;56.39;99213.63;105840;1278;25481;-75
2022/03/28 03:51:52;;;;;;;36.20;15.50;;;;;;;-0.85;56.43;99210.10;105694;1279;137619;-75
2022/03/28 03:54:19;;;;;;;35.60;14.90;;;;;;;-0.85;56.43;99210.80;105800;1278;23254;-75
2022/03/28 03:56:46;;;;;;;35.10;17.20;;;;;;;-0.87;56.40;99209.89;105786;1278;137677;-74
2022/03/28 03:59:27;;;;;;;37.80;15.30;;;;;;;-0.89;56.44;99207.40;105895;1278;22557;-74
2022/03/28 04:02:08;;;;;;;36.70;14.90;;;;;;;-0.90;56.44;99204.27;105695;1280;138050;-75
2022/03/28 04:04:35;;;;;;;35.70;15.00;;;;;;;-0.90;56.45;99203.64;105913;1277;23787;-74
2022/03/28 04:07:17;;;;;;;35.30;14.40;;;;;;;-0.90;56.51;99199.86;105765;1278;23927;-74
2022/03/28 04:09:43;;;;;;;37.50;13.10;;;;;;;-0.90;56.68;99197.72;105722;1278;137609;-74
2022/03/28 04:12:12;;;;;;;37.00;14.80;;;;;;;-0.89;56.65;99198.67;105726;1278;25334;-74
2022/03/28 04:14:57;;;;;;;35.10;14.80;;;;;;;-0.90;56.77;99198.79;105686;1278;137793;-74
2022/03/28 04:17:43;;;;;;;30.10;12.10;;;;;;;-0.90;56.53;99198.59;105809;1278;25308;-74
2022/03/28 04:20:12;;;;;;;32.80;12.40;;;;;;;-0.90;56.72;99196.85;105864;1277;137968;-74
2022/03/28 04:22:53;;;;;;;27.30;12.40;;;;;;;-0.88;56.99;99195.77;105704;1280;22694;-74
2022/03/28 04:25:21;;;;;;;30.30;13.60;;;;;;;-0.86;56.95;99194.69;105853;1278;22554;-73
2022/03/28 04:28:06;;;;;;;36.30;13.70;;;;;;;-0.84;57.00;99201.02;105730;1278;137420;-74
2022/03/28 04:30:47;;;;;;;32.40;14.60;;;;;;;-0.83;57.11;99198.09;105858;1278;22702;-74
2022/03/28 04:33:14;;;;;;;36.10;15.10;;;;;;;-0.83;57.13;99200.59;106294;1278;22638;-74
2022/03/28 04:35:55;;;;;;;34.50;14.20;;;;;;;-0.85;57.27;99194.88;105978;1278;31669;-73
2022/03/28 04:38:35;;;;;;;34.80;14.60;;;;;;;-0.82;57.25;99199.00;105594;1281;137957;-74
2022/03/28 04:41:03;;;;;;;37.80;14.10;;;;;;;-0.81;57.28;99198.48;105811;1278;22560;-73
2022/03/28 04:43:43;;;;;;;36.00;16.00;;;;;;;-0.80;57.54;99199.42;105790;1277;24323;-73
2022/03/28 04:46:24;;;;;;;34.50;16.30;;;;;;;-0.79;57.41;99200.86;105742;1279;137866;-74
2022/03/28 04:49:05;;;;;;;40.30;16.80;;;;;;;-0.77;57.67;99201.26;105688;1279;24345;-74
2022/03/28 04:51:46;;;;;;;39.60;15.80;;;;;;;-0.75;57.94;99203.20;105602;1279;137670;-73
2022/03/28 04:54:27;;;;;;;35.80;16.10;;;;;;;-0.74;57.81;99203.75;105720;1279;22601;-73
2022/03/28 04:57:08;;;;;;;37.30;14.30;;;;;;;-0.72;57.87;99203.98;105623;1279;138217;-73
2022/03/28 04:59:49;;;;;;;33.30;15.00;;;;;;;-0.71;57.89;99201.69;105822;1279;25313;-73
2022/03/28 05:02:30;;;;;;;36.90;15.20;;;;;;;-0.69;57.83;99201.30;105675;1277;137830;-73
2022/03/28 05:05:11;;;;;;;31.70;13.50;;;;;;;-0.67;57.73;99194.74;105725;1279;25359;-73
2022/03/28 05:07:52;;;;;;;36.60;15.40;;;;;;;-0.65;58.32;99193.29;105821;1279;24282;-73
2022/03/28 05:10:33;;;;;;;33.20;14.10;;;;;;;-0.64;58.19;99189.93;105553;1280;137990;-73
2022/03/28 05:13:00;;;;;;;37.50;15.00;;;;;;;-0.62;58.42;99189.94;105825;1279;25365;-73
2022/03/28 05:15:41;;;;;;;34.30;14.10;;;;;;;-0.60;58.68;99187.25;105468;1281;138167;-73
2022/03/28 05:18:21;;;;;;;33.80;14.40;;;;;;;-0.58;58.96;99186.48;105652;1281;24066;-73
2022/03/28 05:21:03;;;;;;;27.90;13.60;;;;;;;-0.53;58.15;99190.41;105694;1278;137623;-73
2022/03/28 05:23:44;;;;;;;37.40;15.60;;;;;;;-0.46;57.97;99189.77;105599;1279;24841;-73
2022/03/28 05:26:26;;;;;;;32.80;13.80;;;;;;;-0.40;57.98;99187.64;105596;1280;137848;-73
2022/03/28 05:29:07;;;;;;;33.40;15.20;;;;;;;-0.32;58.18;99184.44;105807;1278;23223;-73
2022/03/28 05:31:48;;;;;;;32.60;13.50;;;;;;;-0.26;57.98;99185.16;105706;1277;25338;-73
2022/03/28 05:34:30;;;;;;;36.20;16.00;;;;;;;-0.19;57.70;99181.48;105714;1278;138021;-73
2022/03/28 05:36:59;;;;;;;38.20;16.20;;;;;;;-0.12;57.68;99178.44;105861;1278;25251;-73
2022/03/28 05:39:42;;;;;;;32.40;14.50;;;;;;;-0.06;57.51;99178.88;105577;1279;137820;-73
2022/03/28 05:42:23;;;;;;;44.20;17.20;;;;;;;0.00;57.41;99182.13;105796;1277;22653;-73
2022/03/28 05:45:04;;;;;;;37.00;15.20;;;;;;;0.07;57.66;99180.61;105595;1279;137720;-73
2022/03/28 05:47:45;;;;;;;47.20;18.60;;;;;;;0.13;57.55;99176.55;105864;1278;32614;-73
2022/03/28 05:50:12;;;;;;;46.70;17.80;;;;;;;0.20;57.50;99177.83;105742;1278;137895;-73
2022/03/28 05:52:39;;;;;;;45.90;18.70;;;;;;;0.27;57.39;99177.09;105774;1277;25249;-73
2022/03/28 05:55:21;;;;;;;39.20;16.20;;;;;;;0.34;57.35;99174.38;105587;1280;22784;-73
2022/03/28 05:57:48;;;;;;;38.40;16.20;;;;;;;0.41;57.39;99172.22;105793;1278;137656;-73
2022/03/28 06:00:29;;;;;;;45.00;18.10;;;;;;;0.48;57.45;99174.09;105463;1279;22710;-73
2022/03/28 06:03:10;;;;;;;44.80;19.60;;;;;;;0.55;57.60;99173.92;105562;1279;137504;-75
2022/03/28 06:05:50;;;;;;;41.20;17.40;;;;;;;0.63;57.58;99171.69;105701;1279;25302;-74
2022/03/28 06:08:32;;;;;;;46.10;19.30;;;;;;;0.70;57.77;99164.23;105605;1278;137624;-74
2022/03/28 06:10:59;;;;;;;39.10;17.70;;;;;;;0.78;57.47;99163.42;105995;1277;25505;-74
2022/03/28 06:13:42;;;;;;;48.30;16.60;;;;;;;0.87;57.48;99161.98;105741;1278;25371;-73
2022/03/28 06:16:25;;;;;;;46.20;18.80;;;;;;;0.96;57.43;99159.91;105823;1280;137562;-75
2022/03/28 06:19:06;;;;;;;40.30;16.70;;;;;;;1.06;57.35;99157.98;105866;1278;23230;-74
2022/03/28 06:21:47;;;;;;;43.40;20.10;;;;;;;1.17;57.43;99155.30;105594;1279;137548;-74
2022/03/28 06:24:14;;;;;;;58.60;20.40;;;;;;;1.29;57.74;99152.79;105781;1279;23184;-74
2022/03/28 06:26:41;;;;;;;50.00;21.60;;;;;;;1.38;57.64;99148.16;105296;1277;137876;-75
2022/03/28 06:29:10;;;;;;;47.10;19.00;;;;;;;1.50;57.72;99144.55;105720;1277;24277;-74
2022/03/28 06:31:37;;;;;;;;;;;;;;;1.61;57.71;99143.54;105655;1277;25238;-75
2022/03/28 06:34:05;;;;;;;43.20;15.80;;;;;;;1.72;57.83;99146.38;105873;1278;123980;-75
2022/03/28 06:36:45;;;;;;;58.90;18.80;;;;;;;1.84;57.94;99143.83;106290;1279;22583;-74
2022/03/28 06:39:26;;;;;;;42.10;17.60;;;;;;;2.00;57.90;99138.77;105882;1278;137552;-73
2022/03/28 06:41:53;;;;;;;42.60;16.40;;;;;;;2.14;57.81;99137.58;105916;1278;25272;-72
2022/03/28 06:44:20;;;;;;;42.20;16.10;;;;;;;2.30;57.60;99136.52;105920;1278;138547;-73
2022/03/28 06:47:01;;;;;;;43.00;17.00;;;;;;;2.48;57.12;99134.38;106027;1278;23043;-73
2022/03/28 06:49:29;;;;;;;36.40;14.80;;;;;;;2.67;56.95;99133.19;105815;1279;22580;-73
2022/03/28 06:51:56;;;;;;;33.10;13.50;;;;;;;2.88;56.59;99128.98;105841;1277;137536;-73
2022/03/28 06:54:23;;;;;;;34.90;14.20;;;;;;;3.08;56.15;99131.43;105936;1278;22562;-74
2022/03/28 06:56:50;;;;;;;33.70;14.50;;;;;;;3.27;55.62;99127.45;106005;1277;137823;-74
2022/03/28 06:59:31;;;;;;;35.80;15.70;;;;;;;3.48;55.09;99120.45;105864;1277;22563;-73
2022/03/28 07:01:58;;;;;;;30.10;13.40;;;;;;;3.65;54.74;99116.96;106101;1277;25349;-73
2022/03/28 07:04:25;;;;;;;38.00;15.50;;;;;;;3.83;54.33;99116.27;106013;1278;137339;-73
2022/03/28 07:06:52;;;;;;;29.60;12.40;;;;;;;4.02;54.16;99107.38;105799;1279;22610;-73
2022/03/28 07:09:19;;;;;;;37.20;14.20;;;;;;;4.20;53.57;99107.45;105919;1279;137498;-75
2022/03/28 07:11:47;;;;;;;32.70;13.70;;;;;;;4.40;53.14;99104.23;106282;1280;25334;-73
2022/03/28 07:14:16;;;;;;;32.70;14.40;;;;;;;4.57;52.57;99097.17;105874;1279;137708;-73
2022/03/28 07:16:43;;;;;;;35.40;14.50;;;;;;;4.76;52.01;99097.04;106502;1277;24380;-73
2022/03/28 07:19:24;;;;;;;26.70;12.40;;;;;;;4.95;51.49;99092.29;105787;1280;22548;-74
2022/03/28 07:21:51;;;;;;;29.80;14.10;;;;;;;5.12;50.92;99086.56;105991;1278;137429;-74
2022/03/28 07:24:20;;;;;;;26.20;12.80;;;;;;;5.28;50.67;99085.39;106025;1278;22636;-74
2022/03/28 07:27:01;;;;;;;27.80;13.10;;;;;;;5.46;50.06;99084.38;105887;1278;137494;-74
2022/03/28 07:29:28;;;;;;;21.70;11.50;;;;;;;5.65;49.56;99080.42;105814;1279;25399;-74
2022/03/28 07:31:56;;;;;;;28.70;12.80;;;;;;;5.82;49.14;99076.55;105946;1279;24268;-74
2022/03/28 07:34:38;;;;;;;30.90;11.80;;;;;;;6.03;48.64;99067.25;106017;1279;137610;-73
2022/03/28 07:37:19;;;;;;;22.10;10.90;;;;;;;6.21;48.44;99064.46;105688;1279;25383;-73
2022/03/28 07:39:46;;;;;;;29.00;13.30;;;;;;;6.38;48.36;99057.00;105528;1279;137540;-73
2022/03/28 07:42:13;;;;;;;28.60;12.30;;;;;;;6.56;48.04;99052.67;105732;1278;24274;-73
2022/03/28 07:44:56;;;;;;;27.50;11.80;;;;;;;6.75;47.70;99049.17;105916;1279;137819;-73
2022/03/28 07:47:27;;;;;;;30.80;13.10;;;;;;;6.93;47.16;99045.20;105764;1281;24399;-73
2022/03/28 07:49:55;;;;;;;31.20;13.30;;;;;;;7.12;46.78;99042.59;105888;1280;23924;-72
2022/03/28 07:52:36;;;;;;;27.00;12.80;;;;;;;7.31;46.27;99039.13;105921;1280;137394;-72
2022/03/28 07:55:05;;;;;;;24.40;11.90;;;;;;;7.49;46.17;99033.92;105956;1279;24531;-72
2022/03/28 07:57:46;;;;;;;29.10;12.70;;;;;;;7.70;46.03;99027.42;105860;1279;137718;-72
2022/03/28 08:00:16;;;;;;;41.20;12.70;;;;;;;7.88;45.77;99028.10;106078;1280;22567;-72
2022/03/28 08:02:43;;;;;;;23.70;11.70;;;;;;;8.05;45.37;99023.73;107038;1277;137774;-72
2022/03/28 08:05:12;;;;;;;25.70;11.40;;;;;;;8.21;44.80;99013.73;106151;1279;25195;-72
2022/03/28 08:07:39;;;;;;;26.20;9.70;;;;;;;8.39;44.36;99010.10;106604;1278;23323;-72
2022/03/28 08:10:08;;;;;;;30.30;10.70;;;;;;;8.60;43.58;99006.50;106309;1279;138266;-72
2022/03/28 08:12:37;;;;;;;17.20;8.90;;;;;;;8.79;43.46;99007.36;106217;1278;25194;-72
2022/03/28 08:15:21;;;;;;;15.20;8.40;;;;;;;8.99;42.75;99001.95;105863;1279;137596;-72
2022/03/28 08:18:02;;;;;;;14.80;7.80;;;;;;;9.20;42.09;98995.42;106458;1278;25459;-72
2022/03/28 08:20:44;;;;;;;15.00;7.00;;;;;;;9.42;41.74;98993.75;105705;1279;138021;-73
2022/03/28 08:23:25;;;;;;;17.50;7.30;;;;;;;9.65;41.31;98986.23;105821;1279;22592;-73
2022/03/28 08:25:52;;;;;;;14.30;6.90;;;;;;;9.85;40.98;98983.58;105849;1280;22560;-73
2022/03/28 08:28:19;;;;;;;14.90;6.90;;;;;;;10.05;39.98;98983.39;105410;1280;137531;-73
2022/03/28 08:30:46;;;;;;;18.20;7.20;;;;;;;10.24;39.62;98976.95;106273;1279;22569;-73
2022/03/28 08:33:13;;;;;;;17.70;7.00;;;;;;;10.41;39.35;98973.56;105697;1281;137747;-73
2022/03/28 08:35:40;;;;;;;14.20;6.90;;;;;;;10.58;39.26;98973.73;105829;1280;22628;-73
2022/03/28 08:38:08;;;;;;;14.10;6.70;;;;;;;10.78;38.51;98968.16;105773;1279;25479;-73
2022/03/28 08:40:36;;;;;;;12.40;6.30;;;;;;;10.97;38.24;98968.14;105820;1279;138225;-73
2022/03/28 08:43:04;;;;;;;15.20;7.20;;;;;;;11.16;37.35;98964.50;105986;1277;22704;-73
2022/03/28 08:45:48;;;;;;;16.70;6.30;;;;;;;11.36;37.37;98960.29;106122;1277;137832;-73
2022/03/28 08:48:16;;;;;;;13.70;6.10;;;;;;;11.54;37.28;98954.58;105932;1279;24391;-73
2022/03/28 08:50:46;;;;;;;15.30;7.20;;;;;;;11.71;37.03;98951.54;105911;1278;138333;-73
2022/03/28 08:53:27;;;;;;;19.90;7.20;;;;;;;11.89;36.31;98944.84;105965;1279;22656;-73
2022/03/28 08:55:54;;;;;;;12.60;6.30;;;;;;;12.06;36.38;98943.67;106047;1277;25325;-73
2022/03/28 08:58:22;;;;;;;13.40;7.00;;;;;;;12.27;36.51;98944.57;106056;1277;137835;-72
2022/03/28 09:01:04;;;;;;;13.70;6.70;;;;;;;12.48;36.24;98940.59;106013;1278;22566;-73
2022/03/28 09:03:36;;;;;;;13.10;6.40;;;;;;;12.67;35.96;98937.22;105806;1278;137700;-73
2022/03/28 09:06:32;;;;;;;12.20;5.90;;;;;;;12.83;35.66;98934.08;106381;1277;22571;-73
2022/03/28 09:09:27;;;;;;;13.00;6.50;;;;;;;13.00;35.39;98928.08;105969;1277;137822;-72
2022/03/28 09:11:56;;;;;;;13.20;5.90;;;;;;;13.16;35.47;98921.54;105981;1279;22591;-73
2022/03/28 09:14:28;;;;;;;11.40;6.40;;;;;;;13.32;35.04;98921.29;106228;1277;137851;-72
2022/03/28 09:17:10;;;;;;;17.40;7.50;;;;;;;13.44;34.92;98911.04;105927;1279;25622;-72
2022/03/28 09:19:58;;;;;;;14.40;6.80;;;;;;;13.61;34.91;98913.83;105862;1279;24319;-72
2022/03/28 09:22:41;;;;;;;15.30;7.30;;;;;;;13.76;35.00;98907.67;106141;1279;137669;-74
2022/03/28 09:25:23;;;;;;;13.90;7.50;;;;;;;13.90;35.15;98905.16;106070;1279;25247;-72
2022/03/28 09:27:50;;;;;;;19.00;8.40;;;;;;;14.05;34.77;98895.41;105860;1279;137745;-72
2022/03/28 09:30:20;;;;;;;16.70;7.50;;;;;;;14.18;34.75;98897.52;106002;1279;22626;-72
2022/03/28 09:33:01;;;;;;;16.00;8.00;;;;;;;14.33;33.96;98895.10;105793;1279;137949;-72
2022/03/28 09:35:28;;;;;;;13.90;8.00;;;;;;;14.43;33.99;98891.69;106118;1279;25531;-72
2022/03/28 09:38:11;;;;;;;15.00;7.20;;;;;;;14.54;33.91;98882.71;105785;1280;22565;-72
2022/03/28 09:40:43;;;;;;;13.90;7.30;;;;;;;14.65;33.75;98881.50;105887;1278;137530;-72
2022/03/28 09:43:29;;;;;;;13.70;7.60;;;;;;;14.74;33.47;98871.60;106229;1280;22636;-72
2022/03/28 09:45:58;;;;;;;13.50;7.50;;;;;;;14.85;33.49;98867.69;105782;1279;137696;-73
2022/03/28 09:48:28;;;;;;;10.00;6.70;;;;;;;14.97;33.82;98866.77;106082;1279;22538;-72
2022/03/28 09:51:00;;;;;;;16.90;8.30;;;;;;;15.10;33.35;98863.08;105859;1279;138288;-73
2022/03/28 09:53:31;;;;;;;18.50;8.40;;;;;;;15.22;32.57;98855.80;106078;1277;22563;-73
2022/03/28 09:56:12;;;;;;;18.50;9.70;;;;;;;15.32;32.32;98844.88;106155;1277;25428;-72
2022/03/28 09:58:56;;;;;;;20.80;10.10;;;;;;;15.42;31.97;98846.74;105940;1279;137830;-72
2022/03/28 10:01:35;;;;;;;13.20;8.10;;;;;;;15.50;31.60;98844.02;105860;1279;22541;-73
2022/03/28 10:04:10;;;;;;;11.70;7.10;;;;;;;15.59;31.35;98840.16;106331;1279;137754;-72
2022/03/28 10:06:57;;;;;;;13.20;8.10;;;;;;;15.62;30.43;98843.85;106011;1279;25256;-73
2022/03/28 10:09:24;;;;;;;11.20;7.10;;;;;;;15.64;30.61;98835.02;105820;1279;137675;-73
2022/03/28 10:12:07;;;;;;;17.10;9.30;;;;;;;15.70;30.88;98828.95;105966;1280;24215;-71
2022/03/28 10:14:36;;;;;;;13.40;7.50;;;;;;;15.78;30.69;98819.56;105749;1279;138341;-72
2022/03/28 10:17:17;;;;;;;14.80;7.30;;;;;;;15.83;30.30;98812.81;105816;1279;24299;-72
2022/03/28 10:20:00;;;;;;;11.20;6.60;;;;;;;15.92;30.51;98808.39;105895;1279;22583;-72
2022/03/28 10:22:36;;;;;;;8.60;5.90;;;;;;;16.01;29.86;98807.64;105605;1278;138513;-72
2022/03/28 10:25:21;;;;;;;12.30;6.30;;;;;;;16.10;29.78;98807.27;106091;1278;22647;-72
2022/03/28 10:27:52;;;;;;;17.10;7.40;;;;;;;16.17;29.44;98805.02;105810;1279;137809;-72
2022/03/28 10:30:33;;;;;;;11.70;6.40;;;;;;;16.26;29.73;98800.86;106031;1279;24288;-72
2022/03/28 10:33:22;;;;;;;15.20;7.10;;;;;;;16.37;29.45;98798.16;105936;1278;137729;-72
2022/03/28 10:36:01;;;;;;;14.00;7.00;;;;;;;16.48;29.52;98789.30;106227;1277;22559;-72
2022/03/28 10:38:29;;;;;;;10.20;5.80;;;;;;;16.61;28.76;98784.08;105932;1278;137840;-72
2022/03/28 10:41:16;;;;;;;11.70;5.60;;;;;;;16.67;27.40;98781.05;106029;1278;24310;-72
2022/03/28 10:44:04;;;;;;;13.40;5.40;;;;;;;16.72;27.42;98780.92;106027;1277;22774;-73
2022/03/28 10:46:35;;;;;;;13.10;5.40;;;;;;;16.76;26.91;98772.94;105776;1279;137707;-71
2022/03/28 10:49:16;;;;;;;7.70;5.30;;;;;;;16.80;26.67;98764.52;106038;1279;25372;-72
2022/03/28 10:51:59;;;;;;;10.70;6.10;;;;;;;16.85;26.73;98757.98;105701;1279;137855;-72
2022/03/28 10:54:37;;;;;;;;;;;;;;;16.92;26.70;98756.05;105923;1279;22700;-72
2022/03/28 10:57:04;;;;;;;10.40;4.70;;;;;;;16.97;26.02;98750.20;105799;1279;124215;-72
2022/03/28 10:59:31;;;;;;;10.90;5.50;;;;;;;17.01;25.93;98746.27;105880;1279;25379;-72
2022/03/28 11:01:58;;;;;;;11.80;5.70;;;;;;;17.07;25.80;98737.52;105384;1279;615621;-72
2022/03/28 11:04:48;;;;;;;8.30;5.40;;;;;;;17.13;26.18;98736.00;105745;1277;137851;-73
2022/03/28 11:07:21;;;;;;;8.50;4.90;;;;;;;17.21;26.49;98731.63;106087;1280;25310;-73
2022/03/28 11:10:09;;;;;;;9.40;5.50;;;;;;;17.31;26.51;98727.29;106287;1277;137507;-73
2022/03/28 11:12:38;;;;;;;9.40;5.70;;;;;;;17.38;26.65;98715.90;106514;1277;25244;-73
2022/03/28 11:15:24;;;;;;;12.80;6.40;;;;;;;17.44;26.96;98713.79;106778;1278;137679;-72
2022/03/28 11:17:58;;;;;;;9.20;5.60;;;;;;;17.55;26.61;98706.11;106652;1279;22650;-72
2022/03/28 11:20:27;;;;;;;10.10;5.60;;;;;;;17.59;26.52;98700.52;105626;1279;138092;-73
2022/03/28 11:23:10;;;;;;;9.50;5.30;;;;;;;17.69;26.57;98698.16;106465;1279;22545;-73
2022/03/28 11:25:46;;;;;;;;;;;;;;;17.75;26.60;98691.22;106698;1277;25231;-72
2022/03/28 11:28:28;;;;;;;13.80;5.70;;;;;;;17.83;26.47;98685.93;105744;1279;124536;-75
2022/03/28 11:31:07;;;;;;;7.80;5.20;;;;;;;17.92;26.49;98679.67;105994;1280;24095;-74
2022/03/28 11:33:48;;;;;;;9.30;5.20;;;;;;;18.03;26.59;98676.65;105764;1278;138075;-75
2022/03/28 11:36:19;;;;;;;7.60;5.00;;;;;;;18.17;27.09;98671.79;105964;1279;30682;-75
2022/03/28 11:39:04;;;;;;;9.50;5.80;;;;;;;18.36;26.45;98670.00;105653;1279;137698;-74
2022/03/28 11:41:45;;;;;;;7.20;4.70;;;;;;;18.47;25.89;98659.19;105979;1279;23499;-75
2022/03/28 11:44:26;;;;;;;8.30;5.10;;;;;;;18.52;25.68;98651.70;105824;1279;137758;-75
2022/03/28 11:46:57;;;;;;;11.60;5.10;;;;;;;18.59;25.42;98648.31;105701;1280;22567;-73
2022/03/28 11:50:01;;;;;;;8.30;5.30;;;;;;;18.66;25.32;98646.09;105922;1278;22542;-73
2022/03/28 11:52:30;;;;;;;15.70;6.30;;;;;;;18.70;25.70;98638.95;105842;1280;137478;-73
2022/03/28 11:54:58;;;;;;;8.30;6.30;;;;;;;18.77;25.78;98634.30;105898;1279;22717;-72